sensor_id;sensor_type;location;lat;lon;timestamp;temperature;humidity
75363;DHT22;64122;51.988;5.892;2022-12-29T09:11:39;9.92;73.84
75363;DHT22;64122;51.988;5.892;2022-12-29T09:14:10;10.19;74.08
75363;DHT22;64122;51.988;5.892;2022-12-29T09:16:40;10.49;73.52
75363;DHT22;64122;51.988;5.892;2022-12-29T09:19:22;10.74;72.57
75363;DHT22;64122;51.988;5.892;2022-12-29T09:21:51;10.97;72.16
75363;DHT22;64122;51.988;5.892;2022-12-29T09:24:20;11.13;71.06
75363;DHT22;64122;51.988;5.892;2022-12-29T09:26:52;11.27;70.35
75363;DHT22;64122;51.988;5.892;2022-12-29T09:29:21;11.38;69.99
75363;DHT22;64122;51.988;5.892;2022-12-29T09:31:50;11.47;69.23
75363;DHT22;64122;51.988;5.892;2022-12-29T09:34:20;11.56;69.13
75363;DHT22;64122;51.988;5.892;2022-12-29T09:36:49;11.60;67.89
75363;DHT22;64122;51.988;5.892;2022-12-29T09:39:18;11.67;67.91
75363;DHT22;64122;51.988;5.892;2022-12-29T09:41:56;11.71;67.61
75363;DHT22;64122;51.988;5.892;2022-12-29T09:44:36;11.75;67.20
75363;DHT22;64122;51.988;5.892;2022-12-29T09:47:12;11.83;67.43
75363;DHT22;64122;51.988;5.892;2022-12-29T09:49:44;11.89;67.72
75363;DHT22;64122;51.988;5.892;2022-12-29T09:52:19;11.91;67.54
75363;DHT22;64122;51.988;5.892;2022-12-29T09:54:54;11.92;67.26
75363;DHT22;64122;51.988;5.892;2022-12-29T09:57:35;11.91;67.12
75363;DHT22;64122;51.988;5.892;2022-12-29T10:00:12;11.97;67.39
75363;DHT22;64122;51.988;5.892;2022-12-29T10:02:44;11.98;67.26
75363;DHT22;64122;51.988;5.892;2022-12-29T10:05:28;11.92;67.52
75363;DHT22;64122;51.988;5.892;2022-12-29T10:08:07;11.90;67.96
75363;DHT22;64122;51.988;5.892;2022-12-29T10:10:43;11.83;68.45
75363;DHT22;64122;51.988;5.892;2022-12-29T10:13:27;11.77;68.81
75363;DHT22;64122;51.988;5.892;2022-12-29T10:16:02;11.74;69.15
75363;DHT22;64122;51.988;5.892;2022-12-29T10:18:47;11.75;69.28
75363;DHT22;64122;51.988;5.892;2022-12-29T10:21:26;11.75;69.26
75363;DHT22;64122;51.988;5.892;2022-12-29T10:23:56;11.71;69.70
75363;DHT22;64122;51.988;5.892;2022-12-29T10:26:29;11.70;69.88
75363;DHT22;64122;51.988;5.892;2022-12-29T10:29:02;11.54;70.63
75363;DHT22;64122;51.988;5.892;2022-12-29T10:31:35;11.64;70.25
75363;DHT22;64122;51.988;5.892;2022-12-29T10:34:18;11.63;70.29
75363;DHT22;64122;51.988;5.892;2022-12-29T10:36:49;11.66;70.35
75363;DHT22;64122;51.988;5.892;2022-12-29T10:39:23;11.60;70.37
75363;DHT22;64122;51.988;5.892;2022-12-29T10:42:01;11.54;70.60
75363;DHT22;64122;51.988;5.892;2022-12-29T10:44:35;11.54;70.82
75363;DHT22;64122;51.988;5.892;2022-12-29T10:47:11;11.55;70.71
75363;DHT22;64122;51.988;5.892;2022-12-29T10:49:42;11.55;70.80
75363;DHT22;64122;51.988;5.892;2022-12-29T10:52:15;11.53;70.97
75363;DHT22;64122;51.988;5.892;2022-12-29T10:54:48;11.45;71.22
75363;DHT22;64122;51.988;5.892;2022-12-29T10:57:25;11.46;71.37
75363;DHT22;64122;51.988;5.892;2022-12-29T10:59:58;11.48;71.42
75363;DHT22;64122;51.988;5.892;2022-12-29T11:02:51;11.48;71.65
75363;DHT22;64122;51.988;5.892;2022-12-29T11:05:26;11.58;71.34
75363;DHT22;64122;51.988;5.892;2022-12-29T11:08:01;11.62;71.31
75363;DHT22;64122;51.988;5.892;2022-12-29T11:10:36;11.61;71.26
75363;DHT22;64122;51.988;5.892;2022-12-29T11:13:15;11.61;71.22
75363;DHT22;64122;51.988;5.892;2022-12-29T11:15:48;11.63;71.06
75363;DHT22;64122;51.988;5.892;2022-12-29T11:18:21;11.68;70.80
75363;DHT22;64122;51.988;5.892;2022-12-29T11:20:52;11.77;70.68
75363;DHT22;64122;51.988;5.892;2022-12-29T11:23:24;11.82;70.23
75363;DHT22;64122;51.988;5.892;2022-12-29T11:26:14;11.91;70.30
75363;DHT22;64122;51.988;5.892;2022-12-29T11:28:45;12.00;69.80
75363;DHT22;64122;51.988;5.892;2022-12-29T11:31:22;11.99;69.67
75363;DHT22;64122;51.988;5.892;2022-12-29T11:33:51;11.93;69.64
75363;DHT22;64122;51.988;5.892;2022-12-29T11:36:21;11.92;69.97
75363;DHT22;64122;51.988;5.892;2022-12-29T11:38:53;11.99;70.07
75363;DHT22;64122;51.988;5.892;2022-12-29T11:41:25;12.02;70.01
75363;DHT22;64122;51.988;5.892;2022-12-29T11:43:58;12.13;69.80
75363;DHT22;64122;51.988;5.892;2022-12-29T11:46:33;12.15;69.43
75363;DHT22;64122;51.988;5.892;2022-12-29T11:49:04;12.13;68.92
75363;DHT22;64122;51.988;5.892;2022-12-29T11:51:43;12.11;69.20
75363;DHT22;64122;51.988;5.892;2022-12-29T11:54:17;12.13;69.27
75363;DHT22;64122;51.988;5.892;2022-12-29T11:56:48;12.18;69.15
75363;DHT22;64122;51.988;5.892;2022-12-29T11:59:25;12.25;69.04
75363;DHT22;64122;51.988;5.892;2022-12-29T12:02:26;12.20;68.78
75363;DHT22;64122;51.988;5.892;2022-12-29T12:05:03;12.19;68.68
75363;DHT22;64122;51.988;5.892;2022-12-29T12:07:39;12.17;68.50
75363;DHT22;64122;51.988;5.892;2022-12-29T12:10:18;12.14;68.59
75363;DHT22;64122;51.988;5.892;2022-12-29T12:12:53;12.16;68.57
75363;DHT22;64122;51.988;5.892;2022-12-29T12:15:28;12.17;68.17
75363;DHT22;64122;51.988;5.892;2022-12-29T12:18:08;12.20;68.10
75363;DHT22;64122;51.988;5.892;2022-12-29T12:20:45;12.15;67.65
75363;DHT22;64122;51.988;5.892;2022-12-29T12:23:26;12.19;67.55
75363;DHT22;64122;51.988;5.892;2022-12-29T12:26:02;12.28;67.27
75363;DHT22;64122;51.988;5.892;2022-12-29T12:28:37;12.32;67.10
75363;DHT22;64122;51.988;5.892;2022-12-29T12:31:18;12.35;67.01
75363;DHT22;64122;51.988;5.892;2022-12-29T12:33:58;12.35;66.91
75363;DHT22;64122;51.988;5.892;2022-12-29T12:39:27;12.40;66.40
75363;DHT22;64122;51.988;5.892;2022-12-29T12:42:10;12.42;66.09
75363;DHT22;64122;51.988;5.892;2022-12-29T12:44:52;12.40;65.90
75363;DHT22;64122;51.988;5.892;2022-12-29T12:47:37;12.43;65.98
75363;DHT22;64122;51.988;5.892;2022-12-29T12:50:38;12.63;66.01
75363;DHT22;64122;51.988;5.892;2022-12-29T12:53:31;12.70;65.59
75363;DHT22;64122;51.988;5.892;2022-12-29T12:59:02;12.62;65.82
75363;DHT22;64122;51.988;5.892;2022-12-29T13:01:42;12.62;65.78
75363;DHT22;64122;51.988;5.892;2022-12-29T13:04:35;12.56;66.17
75363;DHT22;64122;51.988;5.892;2022-12-29T13:07:16;12.57;66.00
75363;DHT22;64122;51.988;5.892;2022-12-29T13:10:05;12.57;65.84
75363;DHT22;64122;51.988;5.892;2022-12-29T13:12:46;12.55;65.97
75363;DHT22;64122;51.988;5.892;2022-12-29T13:15:32;12.53;66.20
75363;DHT22;64122;51.988;5.892;2022-12-29T13:18:05;12.40;66.78
75363;DHT22;64122;51.988;5.892;2022-12-29T13:20:44;12.43;66.33
75363;DHT22;64122;51.988;5.892;2022-12-29T13:23:23;12.42;66.36
75363;DHT22;64122;51.988;5.892;2022-12-29T13:25:59;12.43;66.23
75363;DHT22;64122;51.988;5.892;2022-12-29T13:28:37;12.37;66.21
75363;DHT22;64122;51.988;5.892;2022-12-29T13:31:15;12.30;66.27
75363;DHT22;64122;51.988;5.892;2022-12-29T13:33:55;12.26;66.62
75363;DHT22;64122;51.988;5.892;2022-12-29T13:36:32;12.22;66.72
75363;DHT22;64122;51.988;5.892;2022-12-29T13:39:18;12.19;66.99
75363;DHT22;64122;51.988;5.892;2022-12-29T13:41:50;12.21;66.91
75363;DHT22;64122;51.988;5.892;2022-12-29T13:44:23;12.21;66.98
75363;DHT22;64122;51.988;5.892;2022-12-29T13:46:56;12.27;66.69
75363;DHT22;64122;51.988;5.892;2022-12-29T13:49:26;12.29;66.45
75363;DHT22;64122;51.988;5.892;2022-12-29T13:51:58;12.29;66.36
75363;DHT22;64122;51.988;5.892;2022-12-29T13:54:37;12.26;66.35
75363;DHT22;64122;51.988;5.892;2022-12-29T13:57:10;12.14;67.10
75363;DHT22;64122;51.988;5.892;2022-12-29T13:59:48;12.20;66.37
75363;DHT22;64122;51.988;5.892;2022-12-29T14:02:30;12.21;66.24
75363;DHT22;64122;51.988;5.892;2022-12-29T14:05:02;12.20;66.19
75363;DHT22;64122;51.988;5.892;2022-12-29T14:07:36;12.21;66.17
75363;DHT22;64122;51.988;5.892;2022-12-29T14:10:27;12.18;66.42
75363;DHT22;64122;51.988;5.892;2022-12-29T14:13:03;12.17;66.27
75363;DHT22;64122;51.988;5.892;2022-12-29T14:15:33;12.13;66.35
75363;DHT22;64122;51.988;5.892;2022-12-29T14:18:17;12.10;66.54
75363;DHT22;64122;51.988;5.892;2022-12-29T14:20:51;12.00;65.75
75363;DHT22;64122;51.988;5.892;2022-12-29T14:23:35;11.98;65.79
75363;DHT22;64122;51.988;5.892;2022-12-29T14:26:33;11.90;65.87
75363;DHT22;64122;51.988;5.892;2022-12-29T14:32:00;11.83;65.05
75363;DHT22;64122;51.988;5.892;2022-12-29T14:34:31;11.78;64.97
75363;DHT22;64122;51.988;5.892;2022-12-29T14:37:23;11.74;65.57
75363;DHT22;64122;51.988;5.892;2022-12-29T14:40:04;11.71;65.88
75363;DHT22;64122;51.988;5.892;2022-12-29T14:42:37;11.70;66.26
75363;DHT22;64122;51.988;5.892;2022-12-29T14:45:25;11.67;66.78
75363;DHT22;64122;51.988;5.892;2022-12-29T14:47:55;11.62;67.15
75363;DHT22;64122;51.988;5.892;2022-12-29T14:50:34;11.56;67.80
75363;DHT22;64122;51.988;5.892;2022-12-29T14:53:09;11.54;67.78
75363;DHT22;64122;51.988;5.892;2022-12-29T14:55:57;11.46;68.20
75363;DHT22;64122;51.988;5.892;2022-12-29T14:58:31;11.45;68.24
75363;DHT22;64122;51.988;5.892;2022-12-29T15:01:02;11.42;68.42
75363;DHT22;64122;51.988;5.892;2022-12-29T15:03:33;11.36;68.56
75363;DHT22;64122;51.988;5.892;2022-12-29T15:06:06;11.32;68.89
75363;DHT22;64122;51.988;5.892;2022-12-29T15:08:39;11.32;68.97
75363;DHT22;64122;51.988;5.892;2022-12-29T15:11:14;11.33;69.16
75363;DHT22;64122;51.988;5.892;2022-12-29T15:13:47;11.31;69.24
75363;DHT22;64122;51.988;5.892;2022-12-29T15:16:26;11.31;69.33
75363;DHT22;64122;51.988;5.892;2022-12-29T15:18:58;11.29;69.56
75363;DHT22;64122;51.988;5.892;2022-12-29T15:21:30;11.27;69.66
75363;DHT22;64122;51.988;5.892;2022-12-29T15:24:00;11.27;69.96
75363;DHT22;64122;51.988;5.892;2022-12-29T15:26:36;11.24;70.15
75363;DHT22;64122;51.988;5.892;2022-12-29T15:29:29;11.18;70.28
75363;DHT22;64122;51.988;5.892;2022-12-29T15:32:00;11.20;70.42
75363;DHT22;64122;51.988;5.892;2022-12-29T15:34:30;11.19;70.55
75363;DHT22;64122;51.988;5.892;2022-12-29T15:37:05;11.14;70.68
75363;DHT22;64122;51.988;5.892;2022-12-29T15:39:35;11.14;70.51
75363;DHT22;64122;51.988;5.892;2022-12-29T15:42:15;11.11;70.45
75363;DHT22;64122;51.988;5.892;2022-12-29T15:44:47;11.07;70.50
75363;DHT22;64122;51.988;5.892;2022-12-29T15:47:18;11.08;70.47
75363;DHT22;64122;51.988;5.892;2022-12-29T15:49:49;11.02;70.36
75363;DHT22;64122;51.988;5.892;2022-12-29T15:52:21;11.05;70.23
75363;DHT22;64122;51.988;5.892;2022-12-29T15:54:52;11.02;70.35
75363;DHT22;64122;51.988;5.892;2022-12-29T15:57:24;10.98;70.19
75363;DHT22;64122;51.988;5.892;2022-12-29T15:59:56;10.98;70.09
75363;DHT22;64122;51.988;5.892;2022-12-29T16:02:26;10.96;69.98
75363;DHT22;64122;51.988;5.892;2022-12-29T16:04:56;10.98;69.89
75363;DHT22;64122;51.988;5.892;2022-12-29T16:07:28;11.00;69.81
75363;DHT22;64122;51.988;5.892;2022-12-29T16:10:00;11.00;69.80
75363;DHT22;64122;51.988;5.892;2022-12-29T16:12:32;10.96;69.63
75363;DHT22;64122;51.988;5.892;2022-12-29T16:15:06;10.95;69.58
75363;DHT22;64122;51.988;5.892;2022-12-29T16:17:50;10.97;69.49
75363;DHT22;64122;51.988;5.892;2022-12-29T16:20:24;11.00;69.42
75363;DHT22;64122;51.988;5.892;2022-12-29T16:22:56;11.04;69.42
75363;DHT22;64122;51.988;5.892;2022-12-29T16:25:28;11.03;69.38
75363;DHT22;64122;51.988;5.892;2022-12-29T16:28:01;11.03;69.41
75363;DHT22;64122;51.988;5.892;2022-12-29T16:30:33;11.04;69.36
75363;DHT22;64122;51.988;5.892;2022-12-29T16:33:05;11.04;69.53
75363;DHT22;64122;51.988;5.892;2022-12-29T16:35:39;11.04;69.45
75363;DHT22;64122;51.988;5.892;2022-12-29T16:38:15;11.01;69.58
75363;DHT22;64122;51.988;5.892;2022-12-29T16:40:51;10.97;69.59
75363;DHT22;64122;51.988;5.892;2022-12-29T16:43:22;10.93;69.61
75363;DHT22;64122;51.988;5.892;2022-12-29T16:46:21;10.82;69.73
75363;DHT22;64122;51.988;5.892;2022-12-29T16:48:52;10.74;69.77
75363;DHT22;64122;51.988;5.892;2022-12-29T16:51:29;10.66;69.87
75363;DHT22;64122;51.988;5.892;2022-12-29T16:53:59;10.63;70.00
75363;DHT22;64122;51.988;5.892;2022-12-29T16:56:32;10.57;69.95
75363;DHT22;64122;51.988;5.892;2022-12-29T16:59:04;10.53;69.78
75363;DHT22;64122;51.988;5.892;2022-12-29T17:01:39;10.51;69.81
75363;DHT22;64122;51.988;5.892;2022-12-29T17:04:09;10.37;70.28
75363;DHT22;64122;51.988;5.892;2022-12-29T17:06:39;10.50;69.79
75363;DHT22;64122;51.988;5.892;2022-12-29T17:09:19;10.51;69.30
75363;DHT22;64122;51.988;5.892;2022-12-29T17:11:51;10.52;69.25
75363;DHT22;64122;51.988;5.892;2022-12-29T17:14:36;10.50;69.21
75363;DHT22;64122;51.988;5.892;2022-12-29T17:17:13;10.49;68.93
75363;DHT22;64122;51.988;5.892;2022-12-29T17:19:45;10.44;68.90
75363;DHT22;64122;51.988;5.892;2022-12-29T17:22:18;10.40;68.94
75363;DHT22;64122;51.988;5.892;2022-12-29T17:24:47;10.37;68.65
75363;DHT22;64122;51.988;5.892;2022-12-29T17:27:26;10.35;68.61
75363;DHT22;64122;51.988;5.892;2022-12-29T17:29:58;10.29;68.49
75363;DHT22;64122;51.988;5.892;2022-12-29T17:32:31;10.25;68.62
75363;DHT22;64122;51.988;5.892;2022-12-29T17:35:01;10.19;68.61
75363;DHT22;64122;51.988;5.892;2022-12-29T17:37:35;10.12;68.75
75363;DHT22;64122;51.988;5.892;2022-12-29T17:40:13;10.06;68.83
75363;DHT22;64122;51.988;5.892;2022-12-29T17:42:44;10.06;68.88
75363;DHT22;64122;51.988;5.892;2022-12-29T17:45:15;10.09;68.73
75363;DHT22;64122;51.988;5.892;2022-12-29T17:47:48;10.06;68.77
75363;DHT22;64122;51.988;5.892;2022-12-29T17:50:19;10.06;68.81
75363;DHT22;64122;51.988;5.892;2022-12-29T17:52:50;10.05;68.62
75363;DHT22;64122;51.988;5.892;2022-12-29T17:55:22;10.04;68.46
75363;DHT22;64122;51.988;5.892;2022-12-29T17:57:52;10.00;68.39
75363;DHT22;64122;51.988;5.892;2022-12-29T18:00:24;9.97;68.39
75363;DHT22;64122;51.988;5.892;2022-12-29T18:02:57;9.94;68.36
75363;DHT22;64122;51.988;5.892;2022-12-29T18:05:28;9.89;68.39
75363;DHT22;64122;51.988;5.892;2022-12-29T18:07:58;9.83;68.46
75363;DHT22;64122;51.988;5.892;2022-12-29T18:10:29;9.78;68.49
75363;DHT22;64122;51.988;5.892;2022-12-29T18:12:59;9.75;68.72
75363;DHT22;64122;51.988;5.892;2022-12-29T18:15:30;9.69;68.66
75363;DHT22;64122;51.988;5.892;2022-12-29T18:18:10;9.65;68.79
75363;DHT22;64122;51.988;5.892;2022-12-29T18:20:40;9.69;68.57
75363;DHT22;64122;51.988;5.892;2022-12-29T18:23:15;9.74;68.41
75363;DHT22;64122;51.988;5.892;2022-12-29T18:25:49;9.84;68.07
75363;DHT22;64122;51.988;5.892;2022-12-29T18:28:21;9.95;67.69
75363;DHT22;64122;51.988;5.892;2022-12-29T18:30:51;9.98;67.33
75363;DHT22;64122;51.988;5.892;2022-12-29T18:33:23;10.04;67.15
75363;DHT22;64122;51.988;5.892;2022-12-29T18:35:55;10.06;66.92
75363;DHT22;64122;51.988;5.892;2022-12-29T18:38:25;10.12;66.77
75363;DHT22;64122;51.988;5.892;2022-12-29T18:40:55;10.18;66.46
75363;DHT22;64122;51.988;5.892;2022-12-29T18:43:25;10.21;66.28
75363;DHT22;64122;51.988;5.892;2022-12-29T18:45:54;10.24;66.16
75363;DHT22;64122;51.988;5.892;2022-12-29T18:48:27;10.27;66.26
75363;DHT22;64122;51.988;5.892;2022-12-29T18:50:56;10.33;66.14
75363;DHT22;64122;51.988;5.892;2022-12-29T18:53:25;10.36;66.05
75363;DHT22;64122;51.988;5.892;2022-12-29T18:55:55;10.27;65.74
75363;DHT22;64122;51.988;5.892;2022-12-29T18:58:24;10.21;65.95
75363;DHT22;64122;51.988;5.892;2022-12-29T19:00:54;10.12;65.94
75363;DHT22;64122;51.988;5.892;2022-12-29T19:03:26;10.05;66.14
75363;DHT22;64122;51.988;5.892;2022-12-29T19:05:55;9.91;66.33
75363;DHT22;64122;51.988;5.892;2022-12-29T19:08:25;9.79;66.33
75363;DHT22;64122;51.988;5.892;2022-12-29T19:10:54;9.70;66.43
75363;DHT22;64122;51.988;5.892;2022-12-29T19:13:24;9.64;66.76
75363;DHT22;64122;51.988;5.892;2022-12-29T19:15:55;9.57;66.99
75363;DHT22;64122;51.988;5.892;2022-12-29T19:18:27;9.56;66.76
75363;DHT22;64122;51.988;5.892;2022-12-29T19:20:58;9.61;66.80
75363;DHT22;64122;51.988;5.892;2022-12-29T19:23:27;9.67;66.54
75363;DHT22;64122;51.988;5.892;2022-12-29T19:25:56;9.74;66.38
75363;DHT22;64122;51.988;5.892;2022-12-29T19:28:27;9.78;66.30
75363;DHT22;64122;51.988;5.892;2022-12-29T19:30:58;9.82;66.26
75363;DHT22;64122;51.988;5.892;2022-12-29T19:33:30;9.86;66.10
75363;DHT22;64122;51.988;5.892;2022-12-29T19:36:00;9.93;66.06
75363;DHT22;64122;51.988;5.892;2022-12-29T19:38:30;9.96;65.88
75363;DHT22;64122;51.988;5.892;2022-12-29T19:40:59;10.01;65.79
75363;DHT22;64122;51.988;5.892;2022-12-29T19:43:28;10.05;65.79
75363;DHT22;64122;51.988;5.892;2022-12-29T19:45:58;10.06;65.81
75363;DHT22;64122;51.988;5.892;2022-12-29T19:48:29;10.09;65.74
75363;DHT22;64122;51.988;5.892;2022-12-29T19:51:03;10.04;65.77
75363;DHT22;64122;51.988;5.892;2022-12-29T19:53:32;10.04;65.88
75363;DHT22;64122;51.988;5.892;2022-12-29T19:56:03;10.06;65.82
75363;DHT22;64122;51.988;5.892;2022-12-29T19:58:34;10.07;65.82
75363;DHT22;64122;51.988;5.892;2022-12-29T20:01:06;10.08;65.78
75363;DHT22;64122;51.988;5.892;2022-12-29T20:03:38;10.09;65.78
75363;DHT22;64122;51.988;5.892;2022-12-29T20:06:09;10.09;65.91
75363;DHT22;64122;51.988;5.892;2022-12-29T20:08:39;10.08;66.07
75363;DHT22;64122;51.988;5.892;2022-12-29T20:11:10;10.05;66.04
75363;DHT22;64122;51.988;5.892;2022-12-29T20:13:40;9.99;66.41
75363;DHT22;64122;51.988;5.892;2022-12-29T20:16:12;9.95;66.53
75363;DHT22;64122;51.988;5.892;2022-12-29T20:18:44;9.90;66.56
75363;DHT22;64122;51.988;5.892;2022-12-29T20:21:14;9.86;66.62
75363;DHT22;64122;51.988;5.892;2022-12-29T20:23:45;9.90;66.67
75363;DHT22;64122;51.988;5.892;2022-12-29T20:26:16;9.93;66.60
75363;DHT22;64122;51.988;5.892;2022-12-29T20:28:46;9.95;66.68
75363;DHT22;64122;51.988;5.892;2022-12-29T20:31:17;9.97;66.48
75363;DHT22;64122;51.988;5.892;2022-12-29T20:33:50;9.96;66.53
75363;DHT22;64122;51.988;5.892;2022-12-29T20:36:21;9.99;66.44
75363;DHT22;64122;51.988;5.892;2022-12-29T20:38:52;10.01;66.53
75363;DHT22;64122;51.988;5.892;2022-12-29T20:41:22;10.03;66.30
75363;DHT22;64122;51.988;5.892;2022-12-29T20:43:52;10.04;66.34
75363;DHT22;64122;51.988;5.892;2022-12-29T20:46:21;10.06;66.32
75363;DHT22;64122;51.988;5.892;2022-12-29T20:48:54;10.04;66.29
75363;DHT22;64122;51.988;5.892;2022-12-29T20:51:24;10.03;66.33
75363;DHT22;64122;51.988;5.892;2022-12-29T20:53:53;9.97;66.40
75363;DHT22;64122;51.988;5.892;2022-12-29T20:56:25;10.00;66.38
75363;DHT22;64122;51.988;5.892;2022-12-29T20:58:55;10.03;66.35
75363;DHT22;64122;51.988;5.892;2022-12-29T21:01:24;10.01;66.28
75363;DHT22;64122;51.988;5.892;2022-12-29T21:03:56;9.95;66.34
75363;DHT22;64122;51.988;5.892;2022-12-29T21:06:26;9.93;66.46
75363;DHT22;64122;51.988;5.892;2022-12-29T21:08:55;9.85;66.64
75363;DHT22;64122;51.988;5.892;2022-12-29T21:11:25;9.80;66.74
75363;DHT22;64122;51.988;5.892;2022-12-29T21:13:55;9.67;67.02
75363;DHT22;64122;51.988;5.892;2022-12-29T21:16:24;9.55;67.21
75363;DHT22;64122;51.988;5.892;2022-12-29T21:18:56;9.41;67.32
75363;DHT22;64122;51.988;5.892;2022-12-29T21:21:25;9.33;67.58
75363;DHT22;64122;51.988;5.892;2022-12-29T21:23:55;9.25;67.75
75363;DHT22;64122;51.988;5.892;2022-12-29T21:26:30;9.22;67.96
75363;DHT22;64122;51.988;5.892;2022-12-29T21:29:01;9.19;68.04
75363;DHT22;64122;51.988;5.892;2022-12-29T21:31:32;9.14;68.13
75363;DHT22;64122;51.988;5.892;2022-12-29T21:34:05;9.18;67.99
75363;DHT22;64122;51.988;5.892;2022-12-29T21:36:34;9.25;67.84
75363;DHT22;64122;51.988;5.892;2022-12-29T21:39:04;9.30;67.70
75363;DHT22;64122;51.988;5.892;2022-12-29T21:41:33;9.38;67.50
75363;DHT22;64122;51.988;5.892;2022-12-29T21:44:03;9.44;67.26
75363;DHT22;64122;51.988;5.892;2022-12-29T21:46:45;9.49;67.23
75363;DHT22;64122;51.988;5.892;2022-12-29T21:49:18;9.53;67.07
75363;DHT22;64122;51.988;5.892;2022-12-29T21:51:49;9.56;67.11
75363;DHT22;64122;51.988;5.892;2022-12-29T21:54:16;9.54;67.10
75363;DHT22;64122;51.988;5.892;2022-12-29T21:56:58;9.53;67.06
75363;DHT22;64122;51.988;5.892;2022-12-29T21:59:27;9.55;67.21
75363;DHT22;64122;51.988;5.892;2022-12-29T22:02:16;9.54;67.09
75363;DHT22;64122;51.988;5.892;2022-12-29T22:05:02;9.48;67.17
75363;DHT22;64122;51.988;5.892;2022-12-29T22:07:43;9.40;67.27
75363;DHT22;64122;51.988;5.892;2022-12-29T22:10:25;9.27;67.65
75363;DHT22;64122;51.988;5.892;2022-12-29T22:13:07;9.16;67.91
75363;DHT22;64122;51.988;5.892;2022-12-29T22:15:36;9.06;68.04
75363;DHT22;64122;51.988;5.892;2022-12-29T22:18:06;8.95;68.24
75363;DHT22;64122;51.988;5.892;2022-12-29T22:20:38;8.89;68.36
75363;DHT22;64122;51.988;5.892;2022-12-29T22:23:07;8.85;68.52
75363;DHT22;64122;51.988;5.892;2022-12-29T22:25:38;8.79;68.57
75363;DHT22;64122;51.988;5.892;2022-12-29T22:28:09;8.59;69.07
75363;DHT22;64122;51.988;5.892;2022-12-29T22:30:38;8.64;68.98
75363;DHT22;64122;51.988;5.892;2022-12-29T22:33:07;8.61;69.05
75363;DHT22;64122;51.988;5.892;2022-12-29T22:35:39;8.59;69.02
75363;DHT22;64122;51.988;5.892;2022-12-29T22:38:09;8.55;69.09
75363;DHT22;64122;51.988;5.892;2022-12-29T22:40:38;8.52;69.19
75363;DHT22;64122;51.988;5.892;2022-12-29T22:43:07;8.49;69.21
75363;DHT22;64122;51.988;5.892;2022-12-29T22:45:37;8.45;69.34
75363;DHT22;64122;51.988;5.892;2022-12-29T22:48:06;8.42;69.39
75363;DHT22;64122;51.988;5.892;2022-12-29T22:50:40;8.39;69.41
75363;DHT22;64122;51.988;5.892;2022-12-29T22:53:09;8.39;69.48
75363;DHT22;64122;51.988;5.892;2022-12-29T22:55:38;8.46;69.39
75363;DHT22;64122;51.988;5.892;2022-12-29T22:58:07;8.57;69.09
75363;DHT22;64122;51.988;5.892;2022-12-29T23:00:37;8.68;68.81
75363;DHT22;64122;51.988;5.892;2022-12-29T23:03:06;8.78;68.55
75363;DHT22;64122;51.988;5.892;2022-12-29T23:05:36;8.88;68.36
75363;DHT22;64122;51.988;5.892;2022-12-29T23:08:08;8.92;68.36
75363;DHT22;64122;51.988;5.892;2022-12-29T23:10:37;8.98;68.23
75363;DHT22;64122;51.988;5.892;2022-12-29T23:13:06;9.03;68.15
75363;DHT22;64122;51.988;5.892;2022-12-29T23:15:35;9.00;68.21
75363;DHT22;64122;51.988;5.892;2022-12-29T23:18:05;8.95;68.37
75363;DHT22;64122;51.988;5.892;2022-12-29T23:20:36;8.89;68.46
75363;DHT22;64122;51.988;5.892;2022-12-29T23:23:07;8.79;68.69
75363;DHT22;64122;51.988;5.892;2022-12-29T23:25:37;8.86;68.70
75363;DHT22;64122;51.988;5.892;2022-12-29T23:28:07;8.93;68.49
75363;DHT22;64122;51.988;5.892;2022-12-29T23:30:36;9.03;68.26
75363;DHT22;64122;51.988;5.892;2022-12-29T23:33:06;9.09;68.17
75363;DHT22;64122;51.988;5.892;2022-12-29T23:35:35;9.10;68.02
75363;DHT22;64122;51.988;5.892;2022-12-29T23:38:07;9.10;68.01
75363;DHT22;64122;51.988;5.892;2022-12-29T23:40:36;9.05;68.19
75363;DHT22;64122;51.988;5.892;2022-12-29T23:43:05;8.95;68.45
75363;DHT22;64122;51.988;5.892;2022-12-29T23:45:35;8.86;68.78
75363;DHT22;64122;51.988;5.892;2022-12-29T23:48:04;8.79;68.94
75363;DHT22;64122;51.988;5.892;2022-12-29T23:50:34;8.76;68.96
75363;DHT22;64122;51.988;5.892;2022-12-29T23:53:10;8.76;68.97
75363;DHT22;64122;51.988;5.892;2022-12-29T23:55:41;8.82;68.84
75363;DHT22;64122;51.988;5.892;2022-12-29T23:58:10;8.89;68.68
